This is the latest recevied weather packets stored in our database for station/object VK3BKO-13. If no packets are shown the sender has not sent any weather packets the latest 10 day(s).
| Time | Temp. | Humidity | Pressure | Rain* | Wind** | Luminosity | Snow |
|---|---|---|---|---|---|---|---|
| 1777354324 | 25.56° C | 45% | 1022 hPa | 0 mm | - | 166 W/m² | - |
| 1777353424 | 25.56° C | 46% | 1021.7 hPa | 0 mm | - | 193 W/m² | - |
| 1777352523 | 23.89° C | 49% | 1022 hPa | 0 mm | - | 324 W/m² | - |
| 1777351623 | 23.89° C | 50% | 1022 hPa | 0 mm | - | 103 W/m² | - |
| 1777350724 | 25° C | 49% | 1022 hPa | 0 mm | - | 132 W/m² | - |
| 1777349824 | 24.44° C | 48% | 1022 hPa | 0 mm | - | 276 W/m² | - |
| 1777348924 | 25° C | 47% | 1022 hPa | 0 mm | - | 159 W/m² | - |
| 1777348024 | 24.44° C | 49% | 1022 hPa | 0 mm | - | 133 W/m² | - |
| 1777347123 | 25° C | 48% | 1022 hPa | 0 mm | - | 165 W/m² | - |
| 1777346224 | 25° C | 48% | 1022 hPa | 0 mm | - | 154 W/m² | - |
| 1777345324 | 26.11° C | 46% | 1022.4 hPa | 0 mm | - | 235 W/m² | - |
| 1777344424 | 25.56° C | 47% | 1022.7 hPa | 0 mm | - | 484 W/m² | - |
| 1777343524 | 26.11° C | 45% | 1022.7 hPa | 0 mm | - | 484 W/m² | - |
| 1777342624 | 25.56° C | 48% | 1023.4 hPa | 0 mm | - | 479 W/m² | - |
| 1777341724 | 24.44° C | 49% | 1023.4 hPa | 0 mm | - | 480 W/m² | - |
| 1777340824 | 24.44° C | 51% | 1023.7 hPa | 0 mm | - | 477 W/m² | - |
| 1777339924 | 22.78° C | 61% | 1023.7 hPa | 0 mm | - | 471 W/m² | - |
| 1777339023 | 20.56° C | 66% | 1023.7 hPa | 0 mm | - | 463 W/m² | - |
| 1777338124 | 20° C | 69% | 1024.1 hPa | 0 mm | - | 451 W/m² | - |
| 1777337224 | 18.89° C | 72% | 1024.1 hPa | 0 mm | - | 434 W/m² | - |
| 1777336323 | 17.22° C | 79% | 1024.4 hPa | 0 mm | - | 409 W/m² | - |
| 1777335424 | 15.56° C | 91% | 1024.4 hPa | 0 mm | - | 313 W/m² | - |
| 1777334524 | 14.44° C | 94% | 1024.4 hPa | 0 mm | - | 242 W/m² | - |
| 1777333624 | 13.33° C | 95% | 1024.4 hPa | 0 mm | - | 212 W/m² | - |
| 1777332724 | 12.22° C | 95% | 1024.8 hPa | 0 mm | - | 126 W/m² | - |
* Rain latest hour (hover to see other rain measurements)
** Current wind speed in m/s (hover to see current wind gust speed)